sensor_id;sensor_type;location;lat;lon;timestamp;P1;durP1;ratioP1;P2;durP2;ratioP2
3036;SDS011;1528;52.550;13.408;2022-09-24T00:00:36;11.37;;;10.67;;
3036;SDS011;1528;52.550;13.408;2022-09-24T00:03:22;10.50;;;9.70;;
3036;SDS011;1528;52.550;13.408;2022-09-24T00:06:11;11.27;;;10.57;;
3036;SDS011;1528;52.550;13.408;2022-09-24T00:09:02;10.97;;;10.27;;
3036;SDS011;1528;52.550;13.408;2022-09-24T00:11:47;11.10;;;10.40;;
3036;SDS011;1528;52.550;13.408;2022-09-24T00:14:34;10.60;;;9.87;;
3036;SDS011;1528;52.550;13.408;2022-09-24T00:17:20;11.10;;;10.30;;
3036;SDS011;1528;52.550;13.408;2022-09-24T00:20:06;10.47;;;9.67;;
3036;SDS011;1528;52.550;13.408;2022-09-24T00:22:52;10.93;;;10.13;;
3036;SDS011;1528;52.550;13.408;2022-09-24T00:25:41;10.73;;;10.03;;
3036;SDS011;1528;52.550;13.408;2022-09-24T00:28:46;11.47;;;10.67;;
3036;SDS011;1528;52.550;13.408;2022-09-24T00:31:33;11.27;;;10.47;;
3036;SDS011;1528;52.550;13.408;2022-09-24T00:34:20;9.93;;;9.33;;
3036;SDS011;1528;52.550;13.408;2022-09-24T00:37:06;11.20;;;10.50;;
3036;SDS011;1528;52.550;13.408;2022-09-24T00:39:52;10.47;;;9.83;;
3036;SDS011;1528;52.550;13.408;2022-09-24T00:42:37;10.60;;;9.80;;
3036;SDS011;1528;52.550;13.408;2022-09-24T00:45:23;10.23;;;9.33;;
3036;SDS011;1528;52.550;13.408;2022-09-24T00:48:09;12.10;;;11.30;;
3036;SDS011;1528;52.550;13.408;2022-09-24T00:50:56;11.17;;;10.47;;
3036;SDS011;1528;52.550;13.408;2022-09-24T00:53:42;11.20;;;10.40;;
3036;SDS011;1528;52.550;13.408;2022-09-24T00:56:30;10.60;;;9.90;;
3036;SDS011;1528;52.550;13.408;2022-09-24T00:59:19;10.77;;;10.07;;
3036;SDS011;1528;52.550;13.408;2022-09-24T01:02:06;11.63;;;10.93;;
3036;SDS011;1528;52.550;13.408;2022-09-24T01:04:52;11.33;;;10.63;;
3036;SDS011;1528;52.550;13.408;2022-09-24T01:07:39;12.13;;;11.37;;
3036;SDS011;1528;52.550;13.408;2022-09-24T01:10:27;11.13;;;10.33;;
3036;SDS011;1528;52.550;13.408;2022-09-24T01:13:40;11.57;;;10.87;;
3036;SDS011;1528;52.550;13.408;2022-09-24T01:16:39;13.27;;;12.37;;
3036;SDS011;1528;52.550;13.408;2022-09-24T01:19:38;10.77;;;10.10;;
3036;SDS011;1528;52.550;13.408;2022-09-24T01:22:41;11.13;;;10.33;;
3036;SDS011;1528;52.550;13.408;2022-09-24T01:25:35;12.00;;;11.23;;
3036;SDS011;1528;52.550;13.408;2022-09-24T01:28:32;11.13;;;10.43;;
3036;SDS011;1528;52.550;13.408;2022-09-24T01:31:28;11.70;;;10.90;;
3036;SDS011;1528;52.550;13.408;2022-09-24T01:34:27;10.43;;;9.83;;
3036;SDS011;1528;52.550;13.408;2022-09-24T01:37:28;11.13;;;10.33;;
3036;SDS011;1528;52.550;13.408;2022-09-24T01:40:16;11.27;;;10.47;;
3036;SDS011;1528;52.550;13.408;2022-09-24T01:43:04;11.67;;;10.87;;
3036;SDS011;1528;52.550;13.408;2022-09-24T01:45:52;11.30;;;10.40;;
3036;SDS011;1528;52.550;13.408;2022-09-24T01:48:43;11.80;;;10.80;;
3036;SDS011;1528;52.550;13.408;2022-09-24T01:51:29;10.53;;;9.93;;
3036;SDS011;1528;52.550;13.408;2022-09-24T01:54:22;10.77;;;10.13;;
3036;SDS011;1528;52.550;13.408;2022-09-24T01:57:11;11.40;;;10.67;;
3036;SDS011;1528;52.550;13.408;2022-09-24T02:00:00;11.60;;;10.90;;
3036;SDS011;1528;52.550;13.408;2022-09-24T02:02:52;12.20;;;11.33;;
3036;SDS011;1528;52.550;13.408;2022-09-24T02:05:43;11.90;;;11.10;;
3036;SDS011;1528;52.550;13.408;2022-09-24T02:08:36;11.50;;;10.80;;
3036;SDS011;1528;52.550;13.408;2022-09-24T02:11:24;11.10;;;10.33;;
3036;SDS011;1528;52.550;13.408;2022-09-24T02:14:11;12.60;;;11.80;;
3036;SDS011;1528;52.550;13.408;2022-09-24T02:16:58;12.07;;;11.23;;
3036;SDS011;1528;52.550;13.408;2022-09-24T02:19:46;12.23;;;11.43;;
3036;SDS011;1528;52.550;13.408;2022-09-24T02:22:35;12.47;;;11.77;;
3036;SDS011;1528;52.550;13.408;2022-09-24T02:25:24;13.03;;;12.17;;
3036;SDS011;1528;52.550;13.408;2022-09-24T02:28:14;11.80;;;11.00;;
3036;SDS011;1528;52.550;13.408;2022-09-24T02:31:01;12.20;;;11.27;;
3036;SDS011;1528;52.550;13.408;2022-09-24T02:33:50;12.23;;;11.50;;
3036;SDS011;1528;52.550;13.408;2022-09-24T02:36:56;12.50;;;11.80;;
3036;SDS011;1528;52.550;13.408;2022-09-24T02:39:44;11.97;;;11.23;;
3036;SDS011;1528;52.550;13.408;2022-09-24T02:42:31;12.57;;;11.77;;
3036;SDS011;1528;52.550;13.408;2022-09-24T02:45:16;13.70;;;12.90;;
3036;SDS011;1528;52.550;13.408;2022-09-24T02:48:02;12.20;;;11.40;;
3036;SDS011;1528;52.550;13.408;2022-09-24T02:50:47;12.13;;;11.33;;
3036;SDS011;1528;52.550;13.408;2022-09-24T02:53:33;11.10;;;10.50;;
3036;SDS011;1528;52.550;13.408;2022-09-24T02:56:20;11.60;;;11.00;;
3036;SDS011;1528;52.550;13.408;2022-09-24T02:59:06;11.00;;;10.20;;
3036;SDS011;1528;52.550;13.408;2022-09-24T03:01:51;10.50;;;9.90;;
3036;SDS011;1528;52.550;13.408;2022-09-24T03:04:37;11.67;;;10.77;;
3036;SDS011;1528;52.550;13.408;2022-09-24T03:07:22;11.80;;;10.97;;
3036;SDS011;1528;52.550;13.408;2022-09-24T03:10:08;11.77;;;10.77;;
3036;SDS011;1528;52.550;13.408;2022-09-24T03:12:55;11.80;;;11.10;;
3036;SDS011;1528;52.550;13.408;2022-09-24T03:15:40;12.80;;;12.00;;
3036;SDS011;1528;52.550;13.408;2022-09-24T03:18:26;13.57;;;12.70;;
3036;SDS011;1528;52.550;13.408;2022-09-24T03:21:12;11.97;;;11.17;;
3036;SDS011;1528;52.550;13.408;2022-09-24T03:24:00;10.27;;;9.67;;
3036;SDS011;1528;52.550;13.408;2022-09-24T03:26:46;13.60;;;12.70;;
3036;SDS011;1528;52.550;13.408;2022-09-24T03:29:33;11.30;;;10.70;;
3036;SDS011;1528;52.550;13.408;2022-09-24T03:32:36;11.90;;;11.20;;
3036;SDS011;1528;52.550;13.408;2022-09-24T03:35:23;11.00;;;10.30;;
3036;SDS011;1528;52.550;13.408;2022-09-24T03:38:09;11.87;;;11.07;;
3036;SDS011;1528;52.550;13.408;2022-09-24T03:40:54;11.10;;;10.40;;
3036;SDS011;1528;52.550;13.408;2022-09-24T03:43:40;10.80;;;10.10;;
3036;SDS011;1528;52.550;13.408;2022-09-24T03:46:26;12.03;;;11.20;;
3036;SDS011;1528;52.550;13.408;2022-09-24T03:49:12;11.60;;;10.70;;
3036;SDS011;1528;52.550;13.408;2022-09-24T03:51:57;12.40;;;11.70;;
3036;SDS011;1528;52.550;13.408;2022-09-24T03:54:43;13.60;;;12.80;;
3036;SDS011;1528;52.550;13.408;2022-09-24T03:57:29;13.40;;;12.50;;
3036;SDS011;1528;52.550;13.408;2022-09-24T04:00:14;12.47;;;11.43;;
3036;SDS011;1528;52.550;13.408;2022-09-24T04:03:01;13.70;;;12.90;;
3036;SDS011;1528;52.550;13.408;2022-09-24T04:05:47;13.40;;;12.50;;
3036;SDS011;1528;52.550;13.408;2022-09-24T04:08:34;13.47;;;12.47;;
3036;SDS011;1528;52.550;13.408;2022-09-24T04:11:19;12.00;;;11.10;;
3036;SDS011;1528;52.550;13.408;2022-09-24T04:14:05;11.40;;;10.80;;
3036;SDS011;1528;52.550;13.408;2022-09-24T04:16:50;12.60;;;11.80;;
3036;SDS011;1528;52.550;13.408;2022-09-24T04:19:37;12.37;;;11.67;;
3036;SDS011;1528;52.550;13.408;2022-09-24T04:22:23;12.63;;;11.90;;
3036;SDS011;1528;52.550;13.408;2022-09-24T04:25:10;14.00;;;13.10;;
3036;SDS011;1528;52.550;13.408;2022-09-24T04:27:57;12.40;;;11.70;;
3036;SDS011;1528;52.550;13.408;2022-09-24T04:30:43;14.00;;;13.00;;
3036;SDS011;1528;52.550;13.408;2022-09-24T04:33:29;12.73;;;12.03;;
3036;SDS011;1528;52.550;13.408;2022-09-24T04:36:16;12.20;;;11.27;;
3036;SDS011;1528;52.550;13.408;2022-09-24T04:39:01;12.90;;;12.07;;
3036;SDS011;1528;52.550;13.408;2022-09-24T04:41:47;12.73;;;11.83;;
3036;SDS011;1528;52.550;13.408;2022-09-24T04:44:33;11.60;;;10.83;;
3036;SDS011;1528;52.550;13.408;2022-09-24T04:47:18;12.93;;;12.13;;
3036;SDS011;1528;52.550;13.408;2022-09-24T04:50:08;12.77;;;11.77;;
3036;SDS011;1528;52.550;13.408;2022-09-24T04:52:56;11.70;;;10.90;;
3036;SDS011;1528;52.550;13.408;2022-09-24T04:55:42;12.03;;;11.23;;
3036;SDS011;1528;52.550;13.408;2022-09-24T04:58:27;12.43;;;11.63;;
3036;SDS011;1528;52.550;13.408;2022-09-24T05:01:13;11.03;;;10.40;;
3036;SDS011;1528;52.550;13.408;2022-09-24T05:03:58;12.00;;;11.10;;
3036;SDS011;1528;52.550;13.408;2022-09-24T05:06:44;12.03;;;11.30;;
3036;SDS011;1528;52.550;13.408;2022-09-24T05:09:31;12.30;;;11.50;;
3036;SDS011;1528;52.550;13.408;2022-09-24T05:12:16;11.10;;;10.17;;
3036;SDS011;1528;52.550;13.408;2022-09-24T05:15:03;12.13;;;11.23;;
3036;SDS011;1528;52.550;13.408;2022-09-24T05:17:49;11.70;;;11.00;;
3036;SDS011;1528;52.550;13.408;2022-09-24T05:20:35;11.83;;;10.60;;
3036;SDS011;1528;52.550;13.408;2022-09-24T05:23:20;11.70;;;11.00;;
3036;SDS011;1528;52.550;13.408;2022-09-24T05:26:07;12.10;;;11.30;;
3036;SDS011;1528;52.550;13.408;2022-09-24T05:29:10;12.03;;;11.33;;
3036;SDS011;1528;52.550;13.408;2022-09-24T05:31:56;12.47;;;11.33;;
3036;SDS011;1528;52.550;13.408;2022-09-24T05:34:43;11.23;;;10.50;;
3036;SDS011;1528;52.550;13.408;2022-09-24T05:37:28;11.87;;;11.03;;
3036;SDS011;1528;52.550;13.408;2022-09-24T05:40:14;12.03;;;11.33;;
3036;SDS011;1528;52.550;13.408;2022-09-24T05:43:19;11.37;;;10.60;;
3036;SDS011;1528;52.550;13.408;2022-09-24T05:46:05;11.47;;;10.77;;
3036;SDS011;1528;52.550;13.408;2022-09-24T05:48:50;13.27;;;12.27;;
3036;SDS011;1528;52.550;13.408;2022-09-24T05:51:35;11.20;;;10.50;;
3036;SDS011;1528;52.550;13.408;2022-09-24T05:54:21;12.50;;;11.60;;
3036;SDS011;1528;52.550;13.408;2022-09-24T05:57:06;15.07;;;13.90;;
3036;SDS011;1528;52.550;13.408;2022-09-24T05:59:53;13.70;;;12.70;;
3036;SDS011;1528;52.550;13.408;2022-09-24T06:02:39;13.07;;;12.37;;
3036;SDS011;1528;52.550;13.408;2022-09-24T06:05:24;12.10;;;11.20;;
3036;SDS011;1528;52.550;13.408;2022-09-24T06:08:11;13.10;;;12.20;;
3036;SDS011;1528;52.550;13.408;2022-09-24T06:10:58;13.00;;;12.30;;
3036;SDS011;1528;52.550;13.408;2022-09-24T06:13:43;13.73;;;12.73;;
3036;SDS011;1528;52.550;13.408;2022-09-24T06:16:32;12.67;;;11.90;;
3036;SDS011;1528;52.550;13.408;2022-09-24T06:19:17;11.93;;;11.23;;
3036;SDS011;1528;52.550;13.408;2022-09-24T06:22:03;13.37;;;12.47;;
3036;SDS011;1528;52.550;13.408;2022-09-24T06:24:48;12.63;;;11.83;;
3036;SDS011;1528;52.550;13.408;2022-09-24T06:27:34;14.43;;;13.37;;
3036;SDS011;1528;52.550;13.408;2022-09-24T06:30:20;13.67;;;12.87;;
3036;SDS011;1528;52.550;13.408;2022-09-24T06:33:07;12.73;;;11.90;;
3036;SDS011;1528;52.550;13.408;2022-09-24T06:35:53;12.20;;;11.40;;
3036;SDS011;1528;52.550;13.408;2022-09-24T06:38:39;12.20;;;11.50;;
3036;SDS011;1528;52.550;13.408;2022-09-24T06:41:24;12.67;;;11.67;;
3036;SDS011;1528;52.550;13.408;2022-09-24T06:44:10;12.70;;;11.90;;
3036;SDS011;1528;52.550;13.408;2022-09-24T06:46:56;13.47;;;12.57;;
3036;SDS011;1528;52.550;13.408;2022-09-24T06:49:43;13.27;;;12.20;;
3036;SDS011;1528;52.550;13.408;2022-09-24T06:52:29;11.83;;;11.00;;
3036;SDS011;1528;52.550;13.408;2022-09-24T06:55:15;11.17;;;10.47;;
3036;SDS011;1528;52.550;13.408;2022-09-24T06:58:02;13.50;;;12.50;;
3036;SDS011;1528;52.550;13.408;2022-09-24T07:00:49;12.67;;;11.87;;
3036;SDS011;1528;52.550;13.408;2022-09-24T07:03:37;13.40;;;12.53;;
3036;SDS011;1528;52.550;13.408;2022-09-24T07:06:24;12.30;;;11.50;;
3036;SDS011;1528;52.550;13.408;2022-09-24T07:09:09;13.53;;;12.60;;
3036;SDS011;1528;52.550;13.408;2022-09-24T07:11:57;11.47;;;10.77;;
3036;SDS011;1528;52.550;13.408;2022-09-24T07:17:19;12.70;;;11.90;;
3036;SDS011;1528;52.550;13.408;2022-09-24T07:20:04;12.77;;;11.97;;
3036;SDS011;1528;52.550;13.408;2022-09-24T07:22:52;12.97;;;12.10;;
3036;SDS011;1528;52.550;13.408;2022-09-24T07:25:38;13.17;;;12.27;;
3036;SDS011;1528;52.550;13.408;2022-09-24T07:28:23;11.47;;;10.77;;
3036;SDS011;1528;52.550;13.408;2022-09-24T07:31:09;12.30;;;11.20;;
3036;SDS011;1528;52.550;13.408;2022-09-24T07:33:55;12.40;;;11.60;;
3036;SDS011;1528;52.550;13.408;2022-09-24T07:36:40;12.43;;;11.63;;
3036;SDS011;1528;52.550;13.408;2022-09-24T07:39:27;13.03;;;12.23;;
3036;SDS011;1528;52.550;13.408;2022-09-24T07:42:13;12.77;;;11.73;;
3036;SDS011;1528;52.550;13.408;2022-09-24T07:44:58;13.50;;;12.60;;
3036;SDS011;1528;52.550;13.408;2022-09-24T07:47:44;13.10;;;12.20;;
3036;SDS011;1528;52.550;13.408;2022-09-24T07:50:31;13.60;;;12.70;;
3036;SDS011;1528;52.550;13.408;2022-09-24T07:53:21;12.20;;;11.33;;
3036;SDS011;1528;52.550;13.408;2022-09-24T07:56:08;12.10;;;11.40;;
3036;SDS011;1528;52.550;13.408;2022-09-24T07:58:53;13.23;;;12.27;;
3036;SDS011;1528;52.550;13.408;2022-09-24T08:01:39;13.60;;;12.60;;
3036;SDS011;1528;52.550;13.408;2022-09-24T08:04:24;14.50;;;13.60;;
3036;SDS011;1528;52.550;13.408;2022-09-24T08:07:10;13.87;;;12.97;;
3036;SDS011;1528;52.550;13.408;2022-09-24T08:09:57;14.67;;;13.77;;
3036;SDS011;1528;52.550;13.408;2022-09-24T08:12:45;14.07;;;13.00;;
3036;SDS011;1528;52.550;13.408;2022-09-24T08:15:31;14.00;;;13.10;;
3036;SDS011;1528;52.550;13.408;2022-09-24T08:18:16;15.93;;;14.97;;
3036;SDS011;1528;52.550;13.408;2022-09-24T08:21:02;14.13;;;13.23;;
3036;SDS011;1528;52.550;13.408;2022-09-24T08:23:48;15.13;;;14.33;;
3036;SDS011;1528;52.550;13.408;2022-09-24T08:26:34;15.43;;;14.33;;
3036;SDS011;1528;52.550;13.408;2022-09-24T08:29:21;13.70;;;12.80;;
3036;SDS011;1528;52.550;13.408;2022-09-24T08:32:07;13.63;;;12.63;;
3036;SDS011;1528;52.550;13.408;2022-09-24T08:34:52;12.80;;;11.77;;
3036;SDS011;1528;52.550;13.408;2022-09-24T08:37:38;15.20;;;14.30;;
3036;SDS011;1528;52.550;13.408;2022-09-24T08:40:23;14.30;;;13.30;;
3036;SDS011;1528;52.550;13.408;2022-09-24T08:43:16;14.80;;;13.87;;
3036;SDS011;1528;52.550;13.408;2022-09-24T08:46:11;13.93;;;13.03;;
3036;SDS011;1528;52.550;13.408;2022-09-24T08:49:19;14.83;;;13.77;;
3036;SDS011;1528;52.550;13.408;2022-09-24T08:52:13;15.67;;;14.73;;
3036;SDS011;1528;52.550;13.408;2022-09-24T08:55:09;16.00;;;14.93;;
3036;SDS011;1528;52.550;13.408;2022-09-24T08:57:57;15.77;;;14.67;;
3036;SDS011;1528;52.550;13.408;2022-09-24T09:00:49;16.70;;;15.80;;
3036;SDS011;1528;52.550;13.408;2022-09-24T09:03:41;13.23;;;12.53;;
3036;SDS011;1528;52.550;13.408;2022-09-24T09:06:38;15.83;;;14.90;;
3036;SDS011;1528;52.550;13.408;2022-09-24T09:09:44;13.90;;;12.93;;
3036;SDS011;1528;52.550;13.408;2022-09-24T09:12:34;14.23;;;13.33;;
3036;SDS011;1528;52.550;13.408;2022-09-24T09:15:23;13.77;;;12.97;;
3036;SDS011;1528;52.550;13.408;2022-09-24T09:18:13;14.07;;;13.17;;
3036;SDS011;1528;52.550;13.408;2022-09-24T09:21:03;17.47;;;16.13;;
3036;SDS011;1528;52.550;13.408;2022-09-24T09:23:56;13.70;;;12.90;;
3036;SDS011;1528;52.550;13.408;2022-09-24T09:26:45;14.73;;;13.93;;
3036;SDS011;1528;52.550;13.408;2022-09-24T09:29:34;14.30;;;13.40;;
3036;SDS011;1528;52.550;13.408;2022-09-24T09:32:23;14.43;;;13.53;;
3036;SDS011;1528;52.550;13.408;2022-09-24T09:35:20;14.50;;;13.70;;
3036;SDS011;1528;52.550;13.408;2022-09-24T09:38:17;15.33;;;14.40;;
3036;SDS011;1528;52.550;13.408;2022-09-24T09:41:10;13.03;;;12.23;;
3036;SDS011;1528;52.550;13.408;2022-09-24T09:44:08;14.93;;;14.03;;
3036;SDS011;1528;52.550;13.408;2022-09-24T09:46:58;13.63;;;12.83;;
3036;SDS011;1528;52.550;13.408;2022-09-24T09:49:51;15.27;;;14.37;;
3036;SDS011;1528;52.550;13.408;2022-09-24T09:52:39;13.10;;;12.00;;
3036;SDS011;1528;52.550;13.408;2022-09-24T09:58:08;15.67;;;14.77;;
3036;SDS011;1528;52.550;13.408;2022-09-24T10:01:03;17.83;;;16.73;;
3036;SDS011;1528;52.550;13.408;2022-09-24T10:03:51;16.13;;;15.13;;
3036;SDS011;1528;52.550;13.408;2022-09-24T10:06:39;14.27;;;13.50;;
3036;SDS011;1528;52.550;13.408;2022-09-24T10:09:24;18.10;;;17.17;;
3036;SDS011;1528;52.550;13.408;2022-09-24T10:12:14;16.80;;;15.90;;
3036;SDS011;1528;52.550;13.408;2022-09-24T10:15:14;21.60;;;20.60;;
3036;SDS011;1528;52.550;13.408;2022-09-24T10:18:01;21.60;;;20.53;;
3036;SDS011;1528;52.550;13.408;2022-09-24T10:20:47;25.17;;;24.20;;
3036;SDS011;1528;52.550;13.408;2022-09-24T10:23:33;19.93;;;19.07;;
3036;SDS011;1528;52.550;13.408;2022-09-24T10:26:31;22.37;;;21.40;;
3036;SDS011;1528;52.550;13.408;2022-09-24T10:29:20;17.37;;;16.50;;
3036;SDS011;1528;52.550;13.408;2022-09-24T10:32:26;17.30;;;16.43;;
3036;SDS011;1528;52.550;13.408;2022-09-24T10:35:20;17.33;;;16.57;;
3036;SDS011;1528;52.550;13.408;2022-09-24T10:38:14;13.90;;;13.20;;
3036;SDS011;1528;52.550;13.408;2022-09-24T10:41:01;13.20;;;12.43;;
3036;SDS011;1528;52.550;13.408;2022-09-24T10:44:07;15.20;;;14.50;;
3036;SDS011;1528;52.550;13.408;2022-09-24T10:50:10;14.00;;;13.40;;
3036;SDS011;1528;52.550;13.408;2022-09-24T10:53:07;14.70;;;13.87;;
3036;SDS011;1528;52.550;13.408;2022-09-24T10:55:58;16.13;;;15.30;;
3036;SDS011;1528;52.550;13.408;2022-09-24T10:59:11;15.50;;;14.67;;
3036;SDS011;1528;52.550;13.408;2022-09-24T11:05:46;14.30;;;13.60;;
3036;SDS011;1528;52.550;13.408;2022-09-24T11:08:45;14.57;;;13.90;;
3036;SDS011;1528;52.550;13.408;2022-09-24T11:11:44;13.67;;;13.00;;
3036;SDS011;1528;52.550;13.408;2022-09-24T11:14:43;13.60;;;12.90;;
3036;SDS011;1528;52.550;13.408;2022-09-24T11:17:39;13.13;;;12.40;;
3036;SDS011;1528;52.550;13.408;2022-09-24T11:20:32;15.80;;;14.90;;
3036;SDS011;1528;52.550;13.408;2022-09-24T11:23:32;18.37;;;17.30;;
3036;SDS011;1528;52.550;13.408;2022-09-24T11:26:32;19.07;;;18.17;;
3036;SDS011;1528;52.550;13.408;2022-09-24T11:32:48;15.93;;;15.13;;
3036;SDS011;1528;52.550;13.408;2022-09-24T11:39:11;20.60;;;19.80;;
3036;SDS011;1528;52.550;13.408;2022-09-24T11:42:13;15.97;;;15.17;;
3036;SDS011;1528;52.550;13.408;2022-09-24T11:45:14;16.63;;;15.93;;
3036;SDS011;1528;52.550;13.408;2022-09-24T11:48:22;20.57;;;19.77;;
3036;SDS011;1528;52.550;13.408;2022-09-24T11:51:25;15.50;;;14.80;;
3036;SDS011;1528;52.550;13.408;2022-09-24T11:54:21;12.03;;;11.53;;
3036;SDS011;1528;52.550;13.408;2022-09-24T11:57:10;12.23;;;11.50;;
3036;SDS011;1528;52.550;13.408;2022-09-24T12:00:00;11.93;;;11.33;;
3036;SDS011;1528;52.550;13.408;2022-09-24T12:02:51;10.80;;;10.30;;
3036;SDS011;1528;52.550;13.408;2022-09-24T12:05:41;11.70;;;11.20;;
3036;SDS011;1528;52.550;13.408;2022-09-24T12:08:33;12.30;;;11.67;;
3036;SDS011;1528;52.550;13.408;2022-09-24T12:11:25;12.50;;;11.80;;
3036;SDS011;1528;52.550;13.408;2022-09-24T12:14:17;12.33;;;11.73;;
3036;SDS011;1528;52.550;13.408;2022-09-24T12:17:05;13.70;;;13.10;;
3036;SDS011;1528;52.550;13.408;2022-09-24T12:19:58;12.57;;;11.70;;
3036;SDS011;1528;52.550;13.408;2022-09-24T12:22:46;11.97;;;11.37;;
3036;SDS011;1528;52.550;13.408;2022-09-24T12:25:36;10.87;;;10.27;;
3036;SDS011;1528;52.550;13.408;2022-09-24T12:28:28;11.30;;;10.60;;
3036;SDS011;1528;52.550;13.408;2022-09-24T12:31:40;12.00;;;11.30;;
3036;SDS011;1528;52.550;13.408;2022-09-24T12:34:50;12.10;;;11.40;;
3036;SDS011;1528;52.550;13.408;2022-09-24T12:37:40;12.57;;;11.97;;
3036;SDS011;1528;52.550;13.408;2022-09-24T12:40:34;13.80;;;13.10;;
3036;SDS011;1528;52.550;13.408;2022-09-24T12:43:37;12.53;;;11.83;;
3036;SDS011;1528;52.550;13.408;2022-09-24T12:46:29;12.57;;;11.97;;
3036;SDS011;1528;52.550;13.408;2022-09-24T12:49:22;12.13;;;11.53;;
3036;SDS011;1528;52.550;13.408;2022-09-24T12:52:16;13.63;;;12.73;;
3036;SDS011;1528;52.550;13.408;2022-09-24T12:55:17;15.73;;;14.80;;
3036;SDS011;1528;52.550;13.408;2022-09-24T12:58:04;14.93;;;14.17;;
3036;SDS011;1528;52.550;13.408;2022-09-24T13:01:03;15.07;;;14.10;;
3036;SDS011;1528;52.550;13.408;2022-09-24T13:04:00;12.90;;;12.20;;
3036;SDS011;1528;52.550;13.408;2022-09-24T13:06:46;12.30;;;11.30;;
3036;SDS011;1528;52.550;13.408;2022-09-24T13:09:33;20.83;;;20.03;;
3036;SDS011;1528;52.550;13.408;2022-09-24T13:12:21;16.27;;;15.57;;
3036;SDS011;1528;52.550;13.408;2022-09-24T13:15:19;13.90;;;13.20;;
3036;SDS011;1528;52.550;13.408;2022-09-24T13:18:19;15.63;;;14.97;;
3036;SDS011;1528;52.550;13.408;2022-09-24T13:21:06;13.73;;;12.93;;
3036;SDS011;1528;52.550;13.408;2022-09-24T13:24:08;10.30;;;9.70;;
3036;SDS011;1528;52.550;13.408;2022-09-24T13:27:06;11.00;;;10.40;;
3036;SDS011;1528;52.550;13.408;2022-09-24T13:30:11;12.33;;;11.73;;
3036;SDS011;1528;52.550;13.408;2022-09-24T13:33:02;11.60;;;11.00;;
3036;SDS011;1528;52.550;13.408;2022-09-24T13:36:00;11.07;;;10.33;;
3036;SDS011;1528;52.550;13.408;2022-09-24T13:38:51;9.90;;;9.40;;
3036;SDS011;1528;52.550;13.408;2022-09-24T13:41:41;12.03;;;11.37;;
3036;SDS011;1528;52.550;13.408;2022-09-24T13:44:33;11.57;;;10.97;;
3036;SDS011;1528;52.550;13.408;2022-09-24T13:47:23;12.33;;;11.67;;
3036;SDS011;1528;52.550;13.408;2022-09-24T13:50:13;10.60;;;10.00;;
3036;SDS011;1528;52.550;13.408;2022-09-24T13:53:03;11.50;;;10.80;;
3036;SDS011;1528;52.550;13.408;2022-09-24T13:55:51;13.73;;;13.13;;
3036;SDS011;1528;52.550;13.408;2022-09-24T13:58:38;15.87;;;15.07;;
3036;SDS011;1528;52.550;13.408;2022-09-24T14:01:25;16.17;;;15.47;;
3036;SDS011;1528;52.550;13.408;2022-09-24T14:04:15;18.33;;;17.43;;
3036;SDS011;1528;52.550;13.408;2022-09-24T14:07:03;16.27;;;15.47;;
3036;SDS011;1528;52.550;13.408;2022-09-24T14:09:59;18.03;;;17.23;;
3036;SDS011;1528;52.550;13.408;2022-09-24T14:12:47;14.90;;;14.23;;
3036;SDS011;1528;52.550;13.408;2022-09-24T14:15:51;15.93;;;15.23;;
3036;SDS011;1528;52.550;13.408;2022-09-24T14:18:37;17.87;;;17.17;;
3036;SDS011;1528;52.550;13.408;2022-09-24T14:21:24;13.97;;;13.27;;
3036;SDS011;1528;52.550;13.408;2022-09-24T14:24:12;14.23;;;13.60;;
3036;SDS011;1528;52.550;13.408;2022-09-24T14:27:04;16.40;;;15.60;;
3036;SDS011;1528;52.550;13.408;2022-09-24T14:29:53;14.93;;;14.23;;
3036;SDS011;1528;52.550;13.408;2022-09-24T14:32:43;12.47;;;11.83;;
3036;SDS011;1528;52.550;13.408;2022-09-24T14:35:29;11.97;;;11.37;;
3036;SDS011;1528;52.550;13.408;2022-09-24T14:38:16;13.63;;;12.93;;
3036;SDS011;1528;52.550;13.408;2022-09-24T14:41:05;11.57;;;10.97;;
3036;SDS011;1528;52.550;13.408;2022-09-24T14:44:01;14.70;;;13.90;;
3036;SDS011;1528;52.550;13.408;2022-09-24T14:46:50;13.07;;;12.37;;
3036;SDS011;1528;52.550;13.408;2022-09-24T14:49:42;11.90;;;11.40;;
3036;SDS011;1528;52.550;13.408;2022-09-24T14:52:29;14.00;;;13.30;;
3036;SDS011;1528;52.550;13.408;2022-09-24T14:55:16;13.47;;;12.77;;
3036;SDS011;1528;52.550;13.408;2022-09-24T14:58:03;15.93;;;15.13;;
3036;SDS011;1528;52.550;13.408;2022-09-24T15:00:50;14.73;;;14.13;;
3036;SDS011;1528;52.550;13.408;2022-09-24T15:03:39;19.73;;;18.93;;
3036;SDS011;1528;52.550;13.408;2022-09-24T15:06:27;13.03;;;12.43;;
3036;SDS011;1528;52.550;13.408;2022-09-24T15:09:23;12.97;;;12.37;;
3036;SDS011;1528;52.550;13.408;2022-09-24T15:12:16;17.53;;;16.83;;
3036;SDS011;1528;52.550;13.408;2022-09-24T15:15:04;15.80;;;15.10;;
3036;SDS011;1528;52.550;13.408;2022-09-24T15:18:11;14.60;;;13.60;;
3036;SDS011;1528;52.550;13.408;2022-09-24T15:21:00;15.97;;;15.17;;
3036;SDS011;1528;52.550;13.408;2022-09-24T15:23:48;13.27;;;12.50;;
3036;SDS011;1528;52.550;13.408;2022-09-24T15:26:35;14.23;;;13.53;;
3036;SDS011;1528;52.550;13.408;2022-09-24T15:29:22;16.80;;;16.10;;
3036;SDS011;1528;52.550;13.408;2022-09-24T15:32:11;16.13;;;15.43;;
3036;SDS011;1528;52.550;13.408;2022-09-24T15:35:01;11.90;;;11.30;;
3036;SDS011;1528;52.550;13.408;2022-09-24T15:37:51;14.10;;;13.20;;
3036;SDS011;1528;52.550;13.408;2022-09-24T15:40:36;14.70;;;13.90;;
3036;SDS011;1528;52.550;13.408;2022-09-24T15:43:24;13.97;;;13.27;;
3036;SDS011;1528;52.550;13.408;2022-09-24T15:46:10;16.30;;;15.50;;
3036;SDS011;1528;52.550;13.408;2022-09-24T15:48:55;17.10;;;16.20;;
3036;SDS011;1528;52.550;13.408;2022-09-24T15:51:42;14.70;;;13.90;;
3036;SDS011;1528;52.550;13.408;2022-09-24T15:54:28;13.80;;;13.00;;
3036;SDS011;1528;52.550;13.408;2022-09-24T15:57:13;13.20;;;12.40;;
3036;SDS011;1528;52.550;13.408;2022-09-24T15:59:59;14.37;;;13.67;;
3036;SDS011;1528;52.550;13.408;2022-09-24T16:02:45;16.23;;;15.43;;
3036;SDS011;1528;52.550;13.408;2022-09-24T16:05:33;15.10;;;14.00;;
3036;SDS011;1528;52.550;13.408;2022-09-24T16:08:20;14.83;;;14.10;;
3036;SDS011;1528;52.550;13.408;2022-09-24T16:11:06;14.00;;;13.20;;
3036;SDS011;1528;52.550;13.408;2022-09-24T16:13:51;14.67;;;13.87;;
3036;SDS011;1528;52.550;13.408;2022-09-24T16:16:37;14.90;;;14.10;;
3036;SDS011;1528;52.550;13.408;2022-09-24T16:19:22;14.70;;;13.80;;
3036;SDS011;1528;52.550;13.408;2022-09-24T16:22:08;14.80;;;13.90;;
3036;SDS011;1528;52.550;13.408;2022-09-24T16:24:55;14.27;;;13.47;;
3036;SDS011;1528;52.550;13.408;2022-09-24T16:27:40;15.47;;;14.57;;
3036;SDS011;1528;52.550;13.408;2022-09-24T16:30:26;15.27;;;14.27;;
3036;SDS011;1528;52.550;13.408;2022-09-24T16:33:11;15.70;;;14.80;;
3036;SDS011;1528;52.550;13.408;2022-09-24T16:36:02;15.00;;;14.10;;
3036;SDS011;1528;52.550;13.408;2022-09-24T16:38:48;14.67;;;13.77;;
3036;SDS011;1528;52.550;13.408;2022-09-24T16:41:35;13.90;;;13.00;;
3036;SDS011;1528;52.550;13.408;2022-09-24T16:44:20;14.33;;;13.37;;
3036;SDS011;1528;52.550;13.408;2022-09-24T16:47:06;15.70;;;14.60;;
3036;SDS011;1528;52.550;13.408;2022-09-24T16:49:53;14.43;;;13.63;;
3036;SDS011;1528;52.550;13.408;2022-09-24T16:52:38;16.57;;;15.47;;
3036;SDS011;1528;52.550;13.408;2022-09-24T16:55:25;17.10;;;15.90;;
3036;SDS011;1528;52.550;13.408;2022-09-24T16:58:12;16.97;;;15.87;;
3036;SDS011;1528;52.550;13.408;2022-09-24T17:00:57;15.83;;;14.83;;
3036;SDS011;1528;52.550;13.408;2022-09-24T17:03:43;16.97;;;15.97;;
3036;SDS011;1528;52.550;13.408;2022-09-24T17:06:33;17.47;;;16.37;;